Grattan, Nebraska
Current Conditions -  °F | °C
As of 12:55 AM on Monday 24 Nov 2014 (Local Time) from KONL Reporting Station
Overcast Overcast  
Wind Chill: 16°   Ceiling: 2500
Heat Index: 30°   Visibility: 10mi
Dew Point: 22°   Wind: 28mph
Humidity: 73%   Direction: 320°NW
Pressure: 29.62"   Gusts: 36mph
Location:  42.6164°N, 98.6183°W
Report Text: KONL 240655Z AUTO 32024G31KT 10SM OVC025 M01/M05 A2962 RMK AO2 T10101053
Loading
Personal Weather Stations






























Interactive Weather Map New forecast layout! Learn more

10-Day Weather Forecast

Advertisements
Track Severe Weather on mobile